Time;durP1;ratioP1;P1;durP2;ratioP2;P2;SDS_P1;SDS_P2;PMS_P1;PMS_P2;Temp;Humidity;BMP_temperature;BMP_pressure;BME280_temperature;BME280_humidity;BME280_pressure;Samples;Min_cycle;Max_cycle;Signal;HPM_P1;HPM_P2
2022/04/17 00:02:23;;;;;;;12.63;6.53;;;;;;;-145.18;100.00;47551.22;5029515;28;20030;-73
2022/04/17 00:04:49;;;;;;;9.57;6.87;;;;;;;-145.18;100.00;47543.41;5030164;28;20060;-73
2022/04/17 00:07:15;;;;;;;9.40;5.83;;;;;;;-145.18;100.00;47549.25;5015208;28;20065;-75
2022/04/17 00:09:40;;;;;;;10.33;6.53;;;;;;;-145.18;100.00;47527.78;5033339;28;20397;-75
2022/04/17 00:12:06;;;;;;;9.37;6.73;;;;;;;-145.18;100.00;47574.66;5014570;28;20046;-75
2022/04/17 00:14:31;;;;;;;11.57;6.97;;;;;;;-145.18;100.00;47570.75;5033374;28;20045;-74
2022/04/17 00:16:57;;;;;;;16.30;7.40;;;;;;;-145.18;100.00;47580.53;5032389;28;20053;-75
2022/04/17 00:19:23;;;;;;;12.83;7.77;;;;;;;-145.18;100.00;47568.81;5033136;28;20021;-73
2022/04/17 00:21:49;;;;;;;12.87;7.87;;;;;;;-145.18;100.00;47588.34;5032838;28;20033;-76
2022/04/17 00:24:15;;;;;;;10.93;7.40;;;;;;;-145.18;100.00;47600.06;5013442;28;20029;-75
2022/04/17 00:26:41;;;;;;;10.37;7.40;;;;;;;-145.18;100.00;47584.44;5012757;28;20374;-73
2022/04/17 00:29:06;;;;;;;13.63;7.60;;;;;;;-145.18;100.00;47566.84;5026995;28;20034;-73
2022/04/17 00:31:31;;;;;;;11.87;7.30;;;;;;;-145.18;100.00;47590.28;5032683;28;20030;-75
2022/04/17 00:33:57;;;;;;;12.27;7.80;;;;;;;-145.18;100.00;47600.06;5032685;28;20072;-76
2022/04/17 00:36:22;;;;;;;13.43;7.70;;;;;;;-145.18;100.00;47605.94;5021491;28;20112;-76
2022/04/17 00:38:47;;;;;;;13.53;7.43;;;;;;;-145.18;100.00;47611.78;5015019;28;20037;-76
2022/04/17 00:41:13;;;;;;;12.47;8.03;;;;;;;-145.18;100.00;47613.75;5032362;28;20033;-76
2022/04/17 00:43:48;;;;;;;17.03;8.80;;;;;;;-145.18;100.00;47617.66;5032939;28;20512;-76
2022/04/17 00:46:15;;;;;;;14.18;8.00;;;;;;;-145.18;100.00;47605.94;5031767;28;20482;-76
2022/04/17 00:48:40;;;;;;;10.53;7.53;;;;;;;-145.18;100.00;47609.84;5032769;28;20038;-76
2022/04/17 00:51:08;;;;;;;13.70;7.47;;;;;;;-145.18;100.00;47611.78;5032063;28;20288;-76
2022/04/17 00:53:35;;;;;;;14.83;8.50;;;;;;;-145.18;100.00;47590.28;5032900;28;20034;-76
2022/04/17 00:56:00;;;;;;;13.47;7.97;;;;;;;-145.18;100.00;47623.50;5031672;28;20321;-76
2022/04/17 00:58:28;;;;;;;12.33;7.87;;;;;;;-145.18;100.00;47646.97;5032480;28;20791;-76
2022/04/17 01:00:53;;;;;;;13.73;7.60;;;;;;;-145.18;100.00;47650.88;5031961;28;20170;-76
2022/04/17 01:03:19;;;;;;;11.77;8.00;;;;;;;-145.18;100.00;47619.59;5032116;28;20286;-76
2022/04/17 01:05:46;;;;;;;11.57;8.07;;;;;;;-145.18;100.00;47643.03;5015211;28;20049;-76
2022/04/17 01:08:13;;;;;;;16.10;8.27;;;;;;;-145.18;100.00;47641.09;5031434;28;20647;-76
2022/04/17 01:10:39;;;;;;;12.87;7.83;;;;;;;-145.18;100.00;47639.13;5032345;28;20285;-75
2022/04/17 01:13:09;;;;;;;12.97;7.80;;;;;;;-145.18;100.00;47611.78;5031759;28;20310;-76
2022/04/17 01:15:37;;;;;;;13.00;7.03;;;;;;;-145.18;100.00;47619.59;5032292;28;20378;-76
2022/04/17 01:18:06;;;;;;;11.63;7.50;;;;;;;-145.18;100.00;47617.66;5013028;28;20271;-75
2022/04/17 01:20:32;;;;;;;12.67;8.27;;;;;;;-145.18;100.00;47605.94;5032061;28;20267;-75
2022/04/17 01:28:27;;;;;;;14.00;7.70;;;;;;;-145.18;100.00;47584.44;5032371;28;20782;-75
2022/04/17 01:30:53;;;;;;;13.47;7.83;;;;;;;-145.18;100.00;47611.78;5031218;28;20282;-75
2022/04/17 01:33:19;;;;;;;12.70;7.33;;;;;;;-145.18;100.00;47580.53;5031668;28;20738;-75
2022/04/17 01:35:44;;;;;;;13.27;8.43;;;;;;;-145.18;100.00;47582.47;5031478;28;20301;-75
2022/04/17 01:38:10;;;;;;;13.57;8.63;;;;;;;-145.18;100.00;47607.88;5031423;28;20497;-75
2022/04/17 01:40:35;;;;;;;15.93;8.40;;;;;;;-145.18;100.00;47633.28;5030254;28;20033;-75
2022/04/17 01:43:00;;;;;;;14.17;8.77;;;;;;;-145.18;100.00;47648.91;5031427;28;20034;-75
2022/04/17 01:45:26;;;;;;;12.67;8.37;;;;;;;-145.18;100.00;47666.50;5031672;28;20059;-75
2022/04/17 01:47:51;;;;;;;13.00;8.50;;;;;;;-145.18;100.00;47674.31;5013462;28;20128;-75
2022/04/17 01:50:17;;;;;;;12.33;8.43;;;;;;;-145.18;100.00;47678.22;5031651;28;20033;-75
2022/04/17 01:52:43;;;;;;;15.90;9.27;;;;;;;-145.18;100.00;47674.31;5030930;28;20083;-75
2022/04/17 01:55:09;;;;;;;15.50;9.27;;;;;;;-145.18;100.00;47656.72;5013909;28;20033;-75
2022/04/17 01:57:34;;;;;;;13.63;8.37;;;;;;;-145.18;100.00;47678.22;5030858;28;20279;-75
2022/04/17 02:00:00;;;;;;;18.10;8.17;;;;;;;-145.18;100.00;47648.91;5031194;28;20041;-75
